sensor_id;sensor_type;location;lat;lon;timestamp;pressure;altitude;pressure_sealevel;temperature;humidity
24230;BME280;12362;50.004;8.006;2022-09-30T00:01:22;99774.06;;;6.91;100.00
24230;BME280;12362;50.004;8.006;2022-09-30T00:03:50;99776.84;;;6.86;100.00
24230;BME280;12362;50.004;8.006;2022-09-30T00:06:15;99778.66;;;6.84;100.00
24230;BME280;12362;50.004;8.006;2022-09-30T00:08:41;99781.44;;;6.80;100.00
24230;BME280;12362;50.004;8.006;2022-09-30T00:11:17;99779.59;;;6.82;100.00
24230;BME280;12362;50.004;8.006;2022-09-30T00:13:46;99776.00;;;6.86;100.00
24230;BME280;12362;50.004;8.006;2022-09-30T00:16:13;99778.88;;;6.80;100.00
24230;BME280;12362;50.004;8.006;2022-09-30T00:18:39;99788.41;;;6.78;100.00
24230;BME280;12362;50.004;8.006;2022-09-30T00:21:06;99790.34;;;6.73;100.00
24230;BME280;12362;50.004;8.006;2022-09-30T00:23:32;99795.56;;;6.71;100.00
24230;BME280;12362;50.004;8.006;2022-09-30T00:25:59;99802.72;;;6.65;100.00
24230;BME280;12362;50.004;8.006;2022-09-30T00:28:25;99800.72;;;6.51;100.00
24230;BME280;12362;50.004;8.006;2022-09-30T00:30:51;99799.69;;;6.35;100.00
24230;BME280;12362;50.004;8.006;2022-09-30T00:33:17;99800.78;;;6.30;100.00
24230;BME280;12362;50.004;8.006;2022-09-30T00:35:42;99795.06;;;6.22;100.00
24230;BME280;12362;50.004;8.006;2022-09-30T00:38:08;99804.75;;;6.17;100.00
24230;BME280;12362;50.004;8.006;2022-09-30T00:40:33;99802.56;;;6.08;100.00
24230;BME280;12362;50.004;8.006;2022-09-30T00:43:01;99807.63;;;6.10;100.00
24230;BME280;12362;50.004;8.006;2022-09-30T00:45:27;99814.66;;;6.06;100.00
24230;BME280;12362;50.004;8.006;2022-09-30T00:47:56;99807.75;;;6.07;100.00
24230;BME280;12362;50.004;8.006;2022-09-30T00:50:36;99807.94;;;6.02;100.00
24230;BME280;12362;50.004;8.006;2022-09-30T00:53:56;99800.81;;;5.87;100.00
24230;BME280;12362;50.004;8.006;2022-09-30T00:56:06;99802.03;;;5.79;100.00
24230;BME280;12362;50.004;8.006;2022-09-30T00:58:42;99803.06;;;5.73;100.00
24230;BME280;12362;50.004;8.006;2022-09-30T01:01:09;99810.84;;;5.72;100.00
24230;BME280;12362;50.004;8.006;2022-09-30T01:03:40;99811.28;;;5.61;100.00
24230;BME280;12362;50.004;8.006;2022-09-30T01:06:08;99817.31;;;5.60;100.00
24230;BME280;12362;50.004;8.006;2022-09-30T01:08:36;99816.56;;;5.57;100.00
24230;BME280;12362;50.004;8.006;2022-09-30T01:11:02;99815.13;;;5.50;100.00
24230;BME280;12362;50.004;8.006;2022-09-30T01:13:28;99819.03;;;5.38;100.00
24230;BME280;12362;50.004;8.006;2022-09-30T01:19:11;99818.84;;;5.43;100.00
24230;BME280;12362;50.004;8.006;2022-09-30T01:21:57;99833.63;;;5.38;100.00
24230;BME280;12362;50.004;8.006;2022-09-30T01:30:54;99841.59;;;5.08;100.00
24230;BME280;12362;50.004;8.006;2022-09-30T01:39:49;99831.91;;;4.91;100.00
24230;BME280;12362;50.004;8.006;2022-09-30T01:47:35;99838.22;;;4.83;100.00
24230;BME280;12362;50.004;8.006;2022-09-30T01:50:30;99842.88;;;4.96;100.00
24230;BME280;12362;50.004;8.006;2022-09-30T01:53:05;99839.72;;;4.88;100.00
24230;BME280;12362;50.004;8.006;2022-09-30T01:55:44;99833.16;;;4.80;100.00
24230;BME280;12362;50.004;8.006;2022-09-30T02:00:48;99843.03;;;4.67;100.00
24230;BME280;12362;50.004;8.006;2022-09-30T02:03:47;99842.09;;;4.70;100.00
24230;BME280;12362;50.004;8.006;2022-09-30T02:06:18;99841.78;;;4.79;100.00
24230;BME280;12362;50.004;8.006;2022-09-30T02:09:08;99847.59;;;4.84;100.00
24230;BME280;12362;50.004;8.006;2022-09-30T02:11:37;99850.97;;;4.86;100.00
24230;BME280;12362;50.004;8.006;2022-09-30T02:14:24;99846.66;;;4.86;100.00
24230;BME280;12362;50.004;8.006;2022-09-30T02:17:01;99854.84;;;4.73;100.00
24230;BME280;12362;50.004;8.006;2022-09-30T02:22:27;99850.34;;;4.55;100.00
24230;BME280;12362;50.004;8.006;2022-09-30T02:24:58;99854.63;;;4.54;100.00
24230;BME280;12362;50.004;8.006;2022-09-30T02:27:31;99851.00;;;4.60;100.00
24230;BME280;12362;50.004;8.006;2022-09-30T02:33:04;99853.09;;;4.49;100.00
24230;BME280;12362;50.004;8.006;2022-09-30T02:35:45;99864.22;;;4.49;100.00
24230;BME280;12362;50.004;8.006;2022-09-30T02:38:15;99867.72;;;4.47;100.00
24230;BME280;12362;50.004;8.006;2022-09-30T02:40:55;99879.00;;;4.43;100.00
24230;BME280;12362;50.004;8.006;2022-09-30T02:43:22;99884.34;;;4.37;100.00
24230;BME280;12362;50.004;8.006;2022-09-30T02:46:07;99881.66;;;4.40;100.00
24230;BME280;12362;50.004;8.006;2022-09-30T02:48:48;99882.66;;;4.36;100.00
24230;BME280;12362;50.004;8.006;2022-09-30T02:53:55;99880.97;;;4.35;100.00
24230;BME280;12362;50.004;8.006;2022-09-30T02:59:08;99875.09;;;4.32;100.00
24230;BME280;12362;50.004;8.006;2022-09-30T03:01:34;99873.63;;;4.25;100.00
24230;BME280;12362;50.004;8.006;2022-09-30T03:04:03;99873.63;;;4.25;100.00
24230;BME280;12362;50.004;8.006;2022-09-30T03:06:29;99882.66;;;4.36;100.00
24230;BME280;12362;50.004;8.006;2022-09-30T03:08:55;99878.06;;;4.46;100.00
24230;BME280;12362;50.004;8.006;2022-09-30T03:11:23;99884.09;;;4.45;100.00
24230;BME280;12362;50.004;8.006;2022-09-30T03:20:42;99886.91;;;4.37;100.00
24230;BME280;12362;50.004;8.006;2022-09-30T03:28:52;99902.50;;;4.05;100.00
24230;BME280;12362;50.004;8.006;2022-09-30T03:31:44;99900.00;;;4.02;100.00
24230;BME280;12362;50.004;8.006;2022-09-30T03:40:08;99901.19;;;3.92;100.00
24230;BME280;12362;50.004;8.006;2022-09-30T03:42:49;99911.44;;;3.92;100.00
24230;BME280;12362;50.004;8.006;2022-09-30T03:45:29;99915.84;;;3.89;100.00
24230;BME280;12362;50.004;8.006;2022-09-30T03:48:00;99921.13;;;3.84;100.00
24230;BME280;12362;50.004;8.006;2022-09-30T03:50:28;99922.88;;;3.82;100.00
24230;BME280;12362;50.004;8.006;2022-09-30T03:52:57;99911.44;;;3.92;100.00
24230;BME280;12362;50.004;8.006;2022-09-30T03:55:23;99926.19;;;3.86;100.00
24230;BME280;12362;50.004;8.006;2022-09-30T03:57:49;99919.75;;;4.00;100.00
24230;BME280;12362;50.004;8.006;2022-09-30T04:00:15;99931.09;;;3.93;100.00
24230;BME280;12362;50.004;8.006;2022-09-30T04:03:02;99930.44;;;3.87;100.00
24230;BME280;12362;50.004;8.006;2022-09-30T04:05:27;99934.06;;;3.80;100.00
24230;BME280;12362;50.004;8.006;2022-09-30T04:07:56;99937.78;;;3.70;100.00
24230;BME280;12362;50.004;8.006;2022-09-30T04:10:21;99940.56;;;3.62;100.00
24230;BME280;12362;50.004;8.006;2022-09-30T04:12:47;99933.66;;;3.64;100.00
24230;BME280;12362;50.004;8.006;2022-09-30T04:15:12;99936.06;;;3.70;100.00
24230;BME280;12362;50.004;8.006;2022-09-30T04:17:38;99938.41;;;3.78;100.00
24230;BME280;12362;50.004;8.006;2022-09-30T04:20:03;99946.94;;;3.78;100.00
24230;BME280;12362;50.004;8.006;2022-09-30T04:22:31;99950.47;;;3.76;100.00
24230;BME280;12362;50.004;8.006;2022-09-30T04:24:56;99947.88;;;3.76;100.00
24230;BME280;12362;50.004;8.006;2022-09-30T04:27:24;99946.19;;;3.75;100.00
24230;BME280;12362;50.004;8.006;2022-09-30T04:29:50;99949.72;;;3.72;100.00
24230;BME280;12362;50.004;8.006;2022-09-30T04:32:15;99956.50;;;3.73;100.00
24230;BME280;12362;50.004;8.006;2022-09-30T04:34:40;99951.59;;;3.66;100.00
24230;BME280;12362;50.004;8.006;2022-09-30T04:37:06;99951.50;;;3.69;100.00
24230;BME280;12362;50.004;8.006;2022-09-30T04:39:32;99954.88;;;3.71;100.00
24230;BME280;12362;50.004;8.006;2022-09-30T04:41:57;99960.13;;;3.66;100.00
24230;BME280;12362;50.004;8.006;2022-09-30T04:44:23;99958.66;;;3.58;100.00
24230;BME280;12362;50.004;8.006;2022-09-30T04:46:48;99966.47;;;3.55;100.00
24230;BME280;12362;50.004;8.006;2022-09-30T04:49:16;99965.78;;;3.49;100.00
24230;BME280;12362;50.004;8.006;2022-09-30T04:51:41;99970.94;;;3.47;100.00
24230;BME280;12362;50.004;8.006;2022-09-30T04:54:10;99973.56;;;3.46;100.00
24230;BME280;12362;50.004;8.006;2022-09-30T04:56:36;99975.03;;;3.54;100.00
24230;BME280;12362;50.004;8.006;2022-09-30T04:59:01;99974.72;;;3.66;100.00
24230;BME280;12362;50.004;8.006;2022-09-30T05:01:27;99979.38;;;3.51;100.00
24230;BME280;12362;50.004;8.006;2022-09-30T05:04:26;99984.09;;;3.35;100.00
24230;BME280;12362;50.004;8.006;2022-09-30T05:06:51;99990.22;;;3.30;100.00
24230;BME280;12362;50.004;8.006;2022-09-30T05:09:17;99994.34;;;3.35;100.00
24230;BME280;12362;50.004;8.006;2022-09-30T05:11:42;99997.66;;;3.40;100.00
24230;BME280;12362;50.004;8.006;2022-09-30T05:14:08;99998.59;;;3.36;100.00
24230;BME280;12362;50.004;8.006;2022-09-30T05:16:33;100004.22;;;3.18;100.00
24230;BME280;12362;50.004;8.006;2022-09-30T05:18:59;100008.50;;;3.18;100.00
24230;BME280;12362;50.004;8.006;2022-09-30T05:21:24;100028.31;;;3.13;100.00
24230;BME280;12362;50.004;8.006;2022-09-30T05:23:52;100024.81;;;3.15;100.00
24230;BME280;12362;50.004;8.006;2022-09-30T05:30:08;100031.31;;;3.28;100.00
24230;BME280;12362;50.004;8.006;2022-09-30T05:32:58;100031.44;;;3.24;100.00
24230;BME280;12362;50.004;8.006;2022-09-30T05:35:23;100035.72;;;3.23;100.00
24230;BME280;12362;50.004;8.006;2022-09-30T05:37:49;100040.03;;;3.21;100.00
24230;BME280;12362;50.004;8.006;2022-09-30T05:40:15;100041.59;;;3.27;100.00
24230;BME280;12362;50.004;8.006;2022-09-30T05:42:40;100042.34;;;3.32;100.00
24230;BME280;12362;50.004;8.006;2022-09-30T05:45:06;100045.66;;;3.37;100.00
24230;BME280;12362;50.004;8.006;2022-09-30T05:47:33;100046.41;;;3.39;100.00
24230;BME280;12362;50.004;8.006;2022-09-30T05:50:06;100050.53;;;3.46;100.00
24230;BME280;12362;50.004;8.006;2022-09-30T05:52:32;100043.53;;;3.51;100.00
24230;BME280;12362;50.004;8.006;2022-09-30T05:55:05;100050.28;;;3.55;100.00
24230;BME280;12362;50.004;8.006;2022-09-30T05:57:34;100055.28;;;3.59;100.00
24230;BME280;12362;50.004;8.006;2022-09-30T06:00:31;100060.56;;;3.55;100.00
24230;BME280;12362;50.004;8.006;2022-09-30T06:03:26;100057.88;;;3.59;100.00
24230;BME280;12362;50.004;8.006;2022-09-30T06:05:55;100061.88;;;3.69;100.00
24230;BME280;12362;50.004;8.006;2022-09-30T06:08:23;100058.84;;;3.85;100.00
24230;BME280;12362;50.004;8.006;2022-09-30T06:10:49;100058.47;;;3.99;100.00
24230;BME280;12362;50.004;8.006;2022-09-30T06:13:15;100068.34;;;4.14;100.00
24230;BME280;12362;50.004;8.006;2022-09-30T06:15:57;100065.38;;;4.27;100.00
24230;BME280;12362;50.004;8.006;2022-09-30T06:18:26;100069.47;;;4.33;100.00
24230;BME280;12362;50.004;8.006;2022-09-30T06:21:13;100060.66;;;4.41;100.00
24230;BME280;12362;50.004;8.006;2022-09-30T06:23:43;100067.66;;;4.65;100.00
24230;BME280;12362;50.004;8.006;2022-09-30T06:26:10;100071.75;;;4.70;100.00
24230;BME280;12362;50.004;8.006;2022-09-30T06:28:51;100074.94;;;4.78;100.00
24230;BME280;12362;50.004;8.006;2022-09-30T06:31:22;100080.06;;;5.06;100.00
24230;BME280;12362;50.004;8.006;2022-09-30T06:34:21;100076.44;;;5.37;100.00
24230;BME280;12362;50.004;8.006;2022-09-30T06:36:56;100071.44;;;5.58;100.00
24230;BME280;12362;50.004;8.006;2022-09-30T06:39:28;100066.75;;;5.69;100.00
24230;BME280;12362;50.004;8.006;2022-09-30T06:41:55;100066.81;;;5.92;100.00
24230;BME280;12362;50.004;8.006;2022-09-30T06:44:24;100071.53;;;6.04;100.00
24230;BME280;12362;50.004;8.006;2022-09-30T06:47:07;100068.72;;;6.10;100.00
24230;BME280;12362;50.004;8.006;2022-09-30T06:49:41;100074.03;;;6.07;100.00
24230;BME280;12362;50.004;8.006;2022-09-30T06:57:29;100072.09;;;6.58;100.00
24230;BME280;12362;50.004;8.006;2022-09-30T06:59:58;100074.28;;;6.45;100.00
24230;BME280;12362;50.004;8.006;2022-09-30T07:02:46;100086.94;;;6.51;100.00
24230;BME280;12362;50.004;8.006;2022-09-30T07:05:26;100085.91;;;6.57;100.00
24230;BME280;12362;50.004;8.006;2022-09-30T07:08:04;100093.22;;;6.67;100.00
24230;BME280;12362;50.004;8.006;2022-09-30T07:10:32;100097.13;;;6.77;100.00
24230;BME280;12362;50.004;8.006;2022-09-30T07:13:08;100090.97;;;6.81;100.00
24230;BME280;12362;50.004;8.006;2022-09-30T07:15:40;100095.88;;;6.66;100.00
24230;BME280;12362;50.004;8.006;2022-09-30T07:18:23;100096.31;;;6.98;100.00
24230;BME280;12362;50.004;8.006;2022-09-30T07:20:56;100093.50;;;7.45;100.00
24230;BME280;12362;50.004;8.006;2022-09-30T07:23:22;100099.66;;;7.43;100.00
24230;BME280;12362;50.004;8.006;2022-09-30T07:25:57;100097.59;;;7.29;100.00
24230;BME280;12362;50.004;8.006;2022-09-30T07:28:28;100094.81;;;7.55;100.00
24230;BME280;12362;50.004;8.006;2022-09-30T07:30:58;100095.41;;;8.02;100.00
24230;BME280;12362;50.004;8.006;2022-09-30T07:33:43;100102.78;;;7.91;100.00
24230;BME280;12362;50.004;8.006;2022-09-30T07:36:18;100102.44;;;8.18;100.00
24230;BME280;12362;50.004;8.006;2022-09-30T07:38:54;100097.06;;;9.14;100.00
24230;BME280;12362;50.004;8.006;2022-09-30T07:41:25;100101.06;;;9.72;100.00
24230;BME280;12362;50.004;8.006;2022-09-30T07:43:54;100099.78;;;9.81;100.00
24230;BME280;12362;50.004;8.006;2022-09-30T07:46:26;100097.69;;;10.21;100.00
24230;BME280;12362;50.004;8.006;2022-09-30T07:48:53;100092.09;;;10.76;100.00
24230;BME280;12362;50.004;8.006;2022-09-30T07:53:56;100106.06;;;10.26;100.00
24230;BME280;12362;50.004;8.006;2022-09-30T07:56:23;100096.44;;;10.91;100.00
24230;BME280;12362;50.004;8.006;2022-09-30T07:58:54;100097.88;;;11.12;100.00
24230;BME280;12362;50.004;8.006;2022-09-30T08:01:20;100099.94;;;11.21;100.00
24230;BME280;12362;50.004;8.006;2022-09-30T08:03:46;100102.47;;;10.91;100.00
24230;BME280;12362;50.004;8.006;2022-09-30T08:06:16;100110.19;;;11.24;100.00
24230;BME280;12362;50.004;8.006;2022-09-30T08:08:43;100107.13;;;11.31;100.00
24230;BME280;12362;50.004;8.006;2022-09-30T08:11:12;100100.06;;;11.64;100.00
24230;BME280;12362;50.004;8.006;2022-09-30T08:13:39;100106.03;;;11.35;100.00
24230;BME280;12362;50.004;8.006;2022-09-30T08:16:06;100106.03;;;11.80;100.00
24230;BME280;12362;50.004;8.006;2022-09-30T08:18:31;100112.84;;;11.82;100.00
24230;BME280;12362;50.004;8.006;2022-09-30T08:21:01;100116.97;;;12.00;100.00
24230;BME280;12362;50.004;8.006;2022-09-30T08:23:27;100110.19;;;12.40;100.00
24230;BME280;12362;50.004;8.006;2022-09-30T08:26:02;100114.00;;;12.34;100.00
24230;BME280;12362;50.004;8.006;2022-09-30T08:28:28;100113.75;;;12.25;100.00
24230;BME280;12362;50.004;8.006;2022-09-30T08:31:11;100115.22;;;12.43;100.00
24230;BME280;12362;50.004;8.006;2022-09-30T08:33:40;100118.75;;;12.28;100.00
24230;BME280;12362;50.004;8.006;2022-09-30T08:36:11;100117.56;;;12.89;100.00
24230;BME280;12362;50.004;8.006;2022-09-30T08:38:39;100116.69;;;13.29;100.00
24230;BME280;12362;50.004;8.006;2022-09-30T08:52:03;100102.94;;;13.65;100.00
24230;BME280;12362;50.004;8.006;2022-09-30T08:54:33;100110.25;;;13.61;100.00
24230;BME280;12362;50.004;8.006;2022-09-30T08:57:01;100113.00;;;13.84;100.00
24230;BME280;12362;50.004;8.006;2022-09-30T08:59:41;100106.47;;;14.03;100.00
24230;BME280;12362;50.004;8.006;2022-09-30T09:04:49;100112.34;;;14.56;100.00
24230;BME280;12362;50.004;8.006;2022-09-30T09:12:45;100110.91;;;15.24;100.00
24230;BME280;12362;50.004;8.006;2022-09-30T09:15:21;100103.91;;;15.48;100.00
24230;BME280;12362;50.004;8.006;2022-09-30T09:18:21;100114.34;;;15.37;100.00
24230;BME280;12362;50.004;8.006;2022-09-30T09:20:54;100116.78;;;15.51;100.00
24230;BME280;12362;50.004;8.006;2022-09-30T09:23:21;100111.31;;;15.88;100.00
24230;BME280;12362;50.004;8.006;2022-09-30T09:25:47;100112.84;;;16.25;100.00
24230;BME280;12362;50.004;8.006;2022-09-30T09:31:22;100107.56;;;16.14;100.00
24230;BME280;12362;50.004;8.006;2022-09-30T09:33:47;100114.69;;;16.57;100.00
24230;BME280;12362;50.004;8.006;2022-09-30T09:36:41;100108.16;;;17.27;100.00
24230;BME280;12362;50.004;8.006;2022-09-30T09:42:30;100107.13;;;17.08;100.00
24230;BME280;12362;50.004;8.006;2022-09-30T09:47:37;100113.00;;;16.78;100.00
24230;BME280;12362;50.004;8.006;2022-09-30T09:50:12;100115.88;;;16.97;100.00
24230;BME280;12362;50.004;8.006;2022-09-30T09:55:09;100112.25;;;17.20;100.00
24230;BME280;12362;50.004;8.006;2022-09-30T09:57:35;100100.81;;;17.63;100.00
24230;BME280;12362;50.004;8.006;2022-09-30T10:00:09;100102.72;;;17.61;100.00
24230;BME280;12362;50.004;8.006;2022-09-30T10:03:24;100105.44;;;18.62;100.00
24230;BME280;12362;50.004;8.006;2022-09-30T10:06:06;100095.72;;;18.83;100.00
24230;BME280;12362;50.004;8.006;2022-09-30T10:08:35;100099.66;;;18.68;100.00
24230;BME280;12362;50.004;8.006;2022-09-30T10:11:16;100089.94;;;19.08;100.00
24230;BME280;12362;50.004;8.006;2022-09-30T10:13:43;100087.19;;;19.09;100.00
24230;BME280;12362;50.004;8.006;2022-09-30T10:16:27;100092.28;;;18.92;100.00
24230;BME280;12362;50.004;8.006;2022-09-30T10:18:53;100093.47;;;19.27;100.00
24230;BME280;12362;50.004;8.006;2022-09-30T10:21:27;100097.03;;;19.07;100.00
24230;BME280;12362;50.004;8.006;2022-09-30T10:23:53;100096.25;;;19.25;100.00
24230;BME280;12362;50.004;8.006;2022-09-30T10:26:24;100093.63;;;19.25;100.00
24230;BME280;12362;50.004;8.006;2022-09-30T10:28:57;100090.88;;;19.55;100.00
24230;BME280;12362;50.004;8.006;2022-09-30T10:36:44;100083.22;;;20.18;92.26
24230;BME280;12362;50.004;8.006;2022-09-30T10:39:20;100072.72;;;20.82;87.20
24230;BME280;12362;50.004;8.006;2022-09-30T10:42:02;100077.28;;;20.89;77.33
24230;BME280;12362;50.004;8.006;2022-09-30T10:44:40;100064.00;;;20.72;82.75
24230;BME280;12362;50.004;8.006;2022-09-30T10:47:07;100072.03;;;20.70;85.52
24230;BME280;12362;50.004;8.006;2022-09-30T10:49:41;100075.72;;;20.60;91.99
24230;BME280;12362;50.004;8.006;2022-09-30T10:52:19;100068.91;;;20.57;87.82
24230;BME280;12362;50.004;8.006;2022-09-30T10:54:57;100066.53;;;20.64;83.54
24230;BME280;12362;50.004;8.006;2022-09-30T10:59:54;100058.97;;;21.92;90.18
24230;BME280;12362;50.004;8.006;2022-09-30T11:05:21;100062.41;;;22.10;79.99
24230;BME280;12362;50.004;8.006;2022-09-30T11:08:03;100066.13;;;21.99;85.37
24230;BME280;12362;50.004;8.006;2022-09-30T11:10:37;100062.13;;;22.13;86.62
24230;BME280;12362;50.004;8.006;2022-09-30T11:13:14;100062.06;;;21.88;77.69
24230;BME280;12362;50.004;8.006;2022-09-30T11:18:46;100074.19;;;20.57;94.27
24230;BME280;12362;50.004;8.006;2022-09-30T11:21:28;100067.91;;;21.56;83.61
24230;BME280;12362;50.004;8.006;2022-09-30T11:33:33;100051.31;;;22.06;80.00
24230;BME280;12362;50.004;8.006;2022-09-30T11:37:07;100068.81;;;20.13;86.90
24230;BME280;12362;50.004;8.006;2022-09-30T11:43:09;100048.44;;;21.57;82.26
24230;BME280;12362;50.004;8.006;2022-09-30T11:55:52;100049.44;;;22.24;77.93
24230;BME280;12362;50.004;8.006;2022-09-30T11:59:14;100045.06;;;22.07;78.92
24230;BME280;12362;50.004;8.006;2022-09-30T12:12:13;100043.75;;;21.16;87.69
24230;BME280;12362;50.004;8.006;2022-09-30T12:15:04;100042.47;;;22.23;70.97
24230;BME280;12362;50.004;8.006;2022-09-30T12:17:57;100042.25;;;21.49;81.50
24230;BME280;12362;50.004;8.006;2022-09-30T12:20:34;100043.06;;;21.84;78.19
24230;BME280;12362;50.004;8.006;2022-09-30T12:23:12;100041.56;;;22.32;71.48
24230;BME280;12362;50.004;8.006;2022-09-30T12:25:45;100039.69;;;22.50;68.47
24230;BME280;12362;50.004;8.006;2022-09-30T12:45:50;100051.69;;;20.90;67.87
24230;BME280;12362;50.004;8.006;2022-09-30T12:48:21;100040.25;;;21.86;69.28
24230;BME280;12362;50.004;8.006;2022-09-30T12:50:55;100040.88;;;22.30;58.63
24230;BME280;12362;50.004;8.006;2022-09-30T12:53:29;100040.63;;;21.91;55.70
24230;BME280;12362;50.004;8.006;2022-09-30T12:56:09;100043.47;;;21.72;64.20
24230;BME280;12362;50.004;8.006;2022-09-30T13:01:24;100035.78;;;22.62;58.19
24230;BME280;12362;50.004;8.006;2022-09-30T13:07:20;100041.00;;;21.96;59.56
24230;BME280;12362;50.004;8.006;2022-09-30T13:12:38;100040.81;;;23.30;57.91
24230;BME280;12362;50.004;8.006;2022-09-30T13:15:33;100043.63;;;22.80;51.85
24230;BME280;12362;50.004;8.006;2022-09-30T13:23:49;100047.38;;;21.50;55.71
24230;BME280;12362;50.004;8.006;2022-09-30T13:28:47;100040.47;;;21.92;56.90
24230;BME280;12362;50.004;8.006;2022-09-30T13:31:17;100030.84;;;22.67;56.21
24230;BME280;12362;50.004;8.006;2022-09-30T13:37:03;100030.97;;;22.66;49.92
24230;BME280;12362;50.004;8.006;2022-09-30T13:39:30;100024.44;;;22.44;48.80
24230;BME280;12362;50.004;8.006;2022-09-30T13:42:26;100021.06;;;22.68;51.91
24230;BME280;12362;50.004;8.006;2022-09-30T13:45:08;100023.44;;;22.45;52.01
24230;BME280;12362;50.004;8.006;2022-09-30T13:47:48;100022.94;;;22.42;54.23
24230;BME280;12362;50.004;8.006;2022-09-30T13:52:41;100041.09;;;20.99;66.53
24230;BME280;12362;50.004;8.006;2022-09-30T13:58:51;100032.16;;;22.12;53.97
24230;BME280;12362;50.004;8.006;2022-09-30T14:21:29;100030.03;;;20.23;67.64
24230;BME280;12362;50.004;8.006;2022-09-30T14:24:02;100034.00;;;19.81;73.41
24230;BME280;12362;50.004;8.006;2022-09-30T14:31:46;100030.31;;;18.69;76.94
24230;BME280;12362;50.004;8.006;2022-09-30T14:34:15;100033.78;;;18.79;83.00
24230;BME280;12362;50.004;8.006;2022-09-30T14:36:42;100027.94;;;19.33;72.60
24230;BME280;12362;50.004;8.006;2022-09-30T14:39:18;100016.13;;;19.09;75.14
24230;BME280;12362;50.004;8.006;2022-09-30T14:41:51;100022.13;;;18.72;77.00
24230;BME280;12362;50.004;8.006;2022-09-30T14:44:17;100018.84;;;18.89;81.77
24230;BME280;12362;50.004;8.006;2022-09-30T14:46:46;100009.13;;;20.12;81.44
24230;BME280;12362;50.004;8.006;2022-09-30T14:49:15;100011.78;;;20.03;66.82
24230;BME280;12362;50.004;8.006;2022-09-30T14:51:44;100003.25;;;20.27;71.08
24230;BME280;12362;50.004;8.006;2022-09-30T14:54:22;99989.78;;;21.19;57.76
24230;BME280;12362;50.004;8.006;2022-09-30T14:56:49;99990.31;;;21.22;60.62
24230;BME280;12362;50.004;8.006;2022-09-30T14:59:17;99977.63;;;21.43;58.14
24230;BME280;12362;50.004;8.006;2022-09-30T15:01:45;99989.34;;;19.80;65.37
24230;BME280;12362;50.004;8.006;2022-09-30T15:04:27;99987.34;;;20.10;66.62
24230;BME280;12362;50.004;8.006;2022-09-30T15:06:56;99989.31;;;20.35;61.60
24230;BME280;12362;50.004;8.006;2022-09-30T15:09:37;99993.66;;;20.26;62.85
24230;BME280;12362;50.004;8.006;2022-09-30T15:12:19;100006.06;;;20.16;63.10
24230;BME280;12362;50.004;8.006;2022-09-30T15:14:53;100000.34;;;20.75;63.79
24230;BME280;12362;50.004;8.006;2022-09-30T15:17:23;100000.50;;;20.46;61.43
24230;BME280;12362;50.004;8.006;2022-09-30T15:19:51;100007.91;;;18.84;74.06
24230;BME280;12362;50.004;8.006;2022-09-30T15:22:18;100006.44;;;18.51;83.98
24230;BME280;12362;50.004;8.006;2022-09-30T15:24:48;100012.63;;;18.41;82.59
24230;BME280;12362;50.004;8.006;2022-09-30T15:27:20;100009.13;;;18.31;80.63
24230;BME280;12362;50.004;8.006;2022-09-30T15:29:57;99993.53;;;18.97;81.13
24230;BME280;12362;50.004;8.006;2022-09-30T16:07:56;100007.94;;;18.15;88.05
24230;BME280;12362;50.004;8.006;2022-09-30T16:25:51;100018.22;;;17.25;100.00
24230;BME280;12362;50.004;8.006;2022-09-30T18:18:21;100153.31;;;10.65;100.00
24230;BME280;12362;50.004;8.006;2022-09-30T18:21:10;100141.25;;;10.31;100.00
24230;BME280;12362;50.004;8.006;2022-09-30T18:23:40;100140.72;;;10.25;100.00
24230;BME280;12362;50.004;8.006;2022-09-30T18:26:19;100132.72;;;10.29;100.00
24230;BME280;12362;50.004;8.006;2022-09-30T19:00:05;100159.28;;;9.13;100.00
24230;BME280;12362;50.004;8.006;2022-09-30T19:02:41;100150.56;;;8.97;100.00
24230;BME280;12362;50.004;8.006;2022-09-30T19:05:23;100153.91;;;8.62;100.00
24230;BME280;12362;50.004;8.006;2022-09-30T19:07:52;100153.72;;;8.47;100.00
24230;BME280;12362;50.004;8.006;2022-09-30T19:10:26;100158.72;;;8.51;100.00
24230;BME280;12362;50.004;8.006;2022-09-30T19:13:02;100153.25;;;8.57;100.00
24230;BME280;12362;50.004;8.006;2022-09-30T19:15:37;100160.13;;;8.58;100.00
24230;BME280;12362;50.004;8.006;2022-09-30T19:18:31;100163.47;;;8.60;100.00
24230;BME280;12362;50.004;8.006;2022-09-30T19:21:26;100161.25;;;8.71;100.00
24230;BME280;12362;50.004;8.006;2022-09-30T19:23:52;100166.91;;;8.61;100.00
24230;BME280;12362;50.004;8.006;2022-09-30T19:26:28;100172.06;;;8.61;100.00
24230;BME280;12362;50.004;8.006;2022-09-30T19:28:59;100170.94;;;8.48;100.00
24230;BME280;12362;50.004;8.006;2022-09-30T19:31:45;100183.38;;;8.40;100.00
24230;BME280;12362;50.004;8.006;2022-09-30T19:34:11;100172.38;;;8.35;100.00
24230;BME280;12362;50.004;8.006;2022-09-30T19:36:52;100181.09;;;8.32;100.00
24230;BME280;12362;50.004;8.006;2022-09-30T19:39:31;100192.44;;;8.30;100.00
24230;BME280;12362;50.004;8.006;2022-09-30T19:42:18;100194.75;;;8.16;100.00
24230;BME280;12362;50.004;8.006;2022-09-30T19:44:54;100193.31;;;8.09;100.00
24230;BME280;12362;50.004;8.006;2022-09-30T19:50:38;100200.69;;;7.98;100.00
24230;BME280;12362;50.004;8.006;2022-09-30T19:53:07;100203.13;;;8.01;100.00
24230;BME280;12362;50.004;8.006;2022-09-30T19:55:49;100203.97;;;8.02;100.00
24230;BME280;12362;50.004;8.006;2022-09-30T19:58:31;100214.22;;;8.03;100.00
24230;BME280;12362;50.004;8.006;2022-09-30T20:01:20;100210.13;;;7.99;100.00
24230;BME280;12362;50.004;8.006;2022-09-30T20:03:47;100209.38;;;7.96;100.00
24230;BME280;12362;50.004;8.006;2022-09-30T20:06:14;100203.66;;;8.09;100.00
24230;BME280;12362;50.004;8.006;2022-09-30T20:08:42;100194.84;;;7.93;100.00
24230;BME280;12362;50.004;8.006;2022-09-30T20:11:11;100197.81;;;7.84;100.00